Enter the Airport ICAO Code

Search by Airport or City

Current Weather

SAZM | Astor Piazzolla International Airport

Mar del Plata, Buenos Aires, Argentina

Last Update 2 Hours Ago

Mist

Temperature of 15 ºC

Light to Moderate Winds from South

Temperature

15 ºC

Dew Point Temperature

14 ºC

Relative Humidity

93.78 %

Wind Direction

South (190º, Without Significant Variations)

Wind Velocity

11 km/h (06 kt)

Gusts

None

Visibility

Reduced to 3.4 Kilometers

Sea Level Pressure

1008 hPa (Hectopascals)

Layers of Clouds

None

METAR SAZM 160500Z 19006KT 3400 BR 15/14 Q1008

Weather Forecast

SAZM | Astor Piazzolla International Airport

Mar del Plata, Buenos Aires, Argentina

Forecast valid for the next 22 Hours

From now on it is expected:

Mist

Light Winds from Variable Directions

From now on it is expected 3 hours with intermittent periods of:

Fog

In 4 to 6 hours it is expected the begining of:

Mostly Cloudy Sky

Moderate Winds from South

In 10 to 12 hours it is expected the begining of:

Clear Sky

Light Winds from Variable Directions

Maximum Temperature

22 ºC in 10 Hours

Minimum Temperature

13 ºC in 2 Hours

TAF SAZM 160500Z 1606/1706 VRB03KT 2000 BR OVC010 TX22/1618Z TN13/1610Z TEMPO 1608/1611 0800 FG OVC007 BECMG 1612/1614 16015KT 9999 BKN015 BECMG 1618/1620 VRB03KT CAVOK